Time;durP1;ratioP1;P1;durP2;ratioP2;P2;SDS_P1;SDS_P2;PMS_P1;PMS_P2;Temp;Humidity;BMP_temperature;BMP_pressure;BME280_temperature;BME280_humidity;BME280_pressure;Samples;Min_cycle;Max_cycle;Signal;HPM_P1;HPM_P2
2020/12/09 00:01:30;;;;;;;16.33;14.73;;;26.70;65.30;;;;;;4993233;28;20223;-62
2020/12/09 00:04:01;;;;;;;17.83;16.10;;;26.70;65.20;;;;;;5006902;28;20640;-61
2020/12/09 00:06:36;;;;;;;18.85;16.88;;;26.70;65.10;;;;;;5007290;28;20235;-62
2020/12/09 00:09:06;;;;;;;16.60;15.05;;;26.70;65.10;;;;;;5004577;28;20297;-61
2020/12/09 00:11:37;;;;;;;17.88;16.02;;;26.70;65.10;;;;;;5007579;28;20234;-62
2020/12/09 00:14:08;;;;;;;17.40;15.70;;;26.70;65.20;;;;;;5004323;28;20246;-62
2020/12/09 00:16:39;;;;;;;17.60;15.88;;;26.80;65.20;;;;;;5009889;28;20239;-61
2020/12/09 00:19:09;;;;;;;16.63;15.00;;;26.80;65.20;;;;;;5010342;28;20245;-62
2020/12/09 00:21:41;;;;;;;17.65;15.93;;;26.80;65.30;;;;;;5011504;28;20231;-62
2020/12/09 00:24:12;;;;;;;18.35;16.65;;;26.80;65.20;;;;;;5009923;28;20663;-61
2020/12/09 00:26:42;;;;;;;19.08;16.83;;;26.80;65.30;;;;;;5011123;28;20230;-62
2020/12/09 00:29:13;;;;;;;19.65;17.65;;;26.90;65.20;;;;;;5007315;28;20238;-62
2020/12/09 00:31:43;;;;;;;18.58;16.67;;;26.90;65.00;;;;;;5010696;28;20764;-62
2020/12/09 00:34:13;;;;;;;19.73;17.05;;;26.90;64.90;;;;;;5010044;28;20318;-61
2020/12/09 00:36:47;;;;;;;17.63;16.02;;;26.90;65.00;;;;;;5009640;28;20250;-62
2020/12/09 00:39:18;;;;;;;18.05;16.13;;;27.00;65.00;;;;;;5001683;28;21034;-62
2020/12/09 00:41:49;;;;;;;18.98;17.08;;;27.10;64.80;;;;;;5009867;28;20227;-62
2020/12/09 00:44:19;;;;;;;20.52;18.20;;;27.10;64.60;;;;;;5003827;28;20238;-62
2020/12/09 00:46:50;;;;;;;19.52;17.65;;;27.20;64.60;;;;;;5007104;28;20232;-62
2020/12/09 00:49:21;;;;;;;21.02;18.92;;;27.20;64.40;;;;;;5004511;28;20580;-61
2020/12/09 00:51:54;;;;;;;18.20;16.52;;;27.20;64.10;;;;;;5003302;28;20259;-62
2020/12/09 00:54:24;;;;;;;18.90;17.05;;;27.30;64.00;;;;;;5007053;28;20242;-58
2020/12/09 00:56:54;;;;;;;18.35;16.48;;;27.30;63.90;;;;;;5007203;28;20706;-62
2020/12/09 00:59:25;;;;;;;18.90;16.90;;;27.40;63.80;;;;;;5004498;28;20837;-61
2020/12/09 01:01:56;;;;;;;18.35;16.48;;;27.40;63.70;;;;;;5002345;28;20259;-61
2020/12/09 01:04:27;;;;;;;19.77;17.73;;;27.50;63.40;;;;;;5004348;28;20242;-61
2020/12/09 01:06:59;;;;;;;18.00;16.30;;;27.60;63.20;;;;;;5001595;28;20233;-61
2020/12/09 01:09:29;;;;;;;18.48;16.73;;;27.60;63.10;;;;;;5010548;28;20262;-61
2020/12/09 01:12:03;;;;;;;20.55;18.45;;;27.70;63.10;;;;;;4996286;28;20258;-61
2020/12/09 01:14:34;;;;;;;19.23;17.30;;;27.70;62.40;;;;;;5010204;28;20328;-61
2020/12/09 01:17:04;;;;;;;17.88;15.38;;;27.80;62.60;;;;;;5005415;28;20263;-59
2020/12/09 01:19:35;;;;;;;17.67;15.80;;;27.90;63.60;;;;;;5007481;28;20690;-59
2020/12/09 01:22:07;;;;;;;17.30;15.60;;;27.90;62.80;;;;;;5008263;28;20306;-58
2020/12/09 01:24:38;;;;;;;19.38;17.30;;;28.00;62.40;;;;;;5010484;28;20628;-57
2020/12/09 01:27:08;;;;;;;19.35;17.15;;;28.00;62.00;;;;;;5002116;28;20696;-58
2020/12/09 01:29:40;;;;;;;17.88;16.08;;;28.20;61.70;;;;;;5005713;28;20237;-59
2020/12/09 01:32:10;;;;;;;17.30;15.73;;;28.20;61.70;;;;;;5007306;28;20250;-58
2020/12/09 01:34:41;;;;;;;16.90;15.30;;;28.30;61.90;;;;;;5005010;28;20590;-58
2020/12/09 01:37:14;;;;;;;18.23;16.50;;;28.30;61.70;;;;;;5006704;28;20707;-59
2020/12/09 01:39:45;;;;;;;19.13;16.27;;;28.40;61.10;;;;;;5003499;28;20314;-59
2020/12/09 01:42:15;;;;;;;19.40;17.40;;;28.50;60.70;;;;;;5003420;28;20247;-59
2020/12/09 01:44:46;;;;;;;16.90;15.23;;;28.50;60.40;;;;;;5008707;28;20231;-59
2020/12/09 01:47:17;;;;;;;19.38;15.45;;;28.60;60.50;;;;;;5005357;28;20285;-58
2020/12/09 01:49:48;;;;;;;17.05;15.38;;;28.60;60.00;;;;;;5005642;28;20260;-59
2020/12/09 01:52:20;;;;;;;16.98;15.27;;;28.80;59.80;;;;;;5006717;28;20259;-59
2020/12/09 01:54:51;;;;;;;17.52;15.73;;;28.80;59.80;;;;;;5008001;28;20730;-60
2020/12/09 01:57:22;;;;;;;16.50;14.98;;;28.90;59.40;;;;;;5008692;28;20233;-58
2020/12/09 01:59:52;;;;;;;17.98;15.48;;;29.00;59.40;;;;;;5004684;28;20235;-60
2020/12/09 02:02:23;;;;;;;16.05;14.45;;;29.00;59.30;;;;;;5007036;28;20265;-60
2020/12/09 02:04:54;;;;;;;16.98;15.35;;;29.10;59.00;;;;;;4998323;28;20255;-60
2020/12/09 02:07:26;;;;;;;18.65;15.85;;;29.20;58.90;;;;;;5002354;28;20243;-60
2020/12/09 02:10:01;;;;;;;17.38;15.57;;;29.30;58.60;;;;;;5005003;28;20666;-60
2020/12/09 02:12:33;;;;;;;17.00;15.30;;;29.30;58.20;;;;;;4999163;28;20264;-59
2020/12/09 02:15:05;;;;;;;19.15;17.17;;;29.40;58.30;;;;;;5005693;28;20242;-57
2020/12/09 02:17:36;;;;;;;17.23;15.48;;;29.50;58.10;;;;;;5007286;28;20762;-60
2020/12/09 02:20:10;;;;;;;16.05;14.50;;;29.50;57.70;;;;;;5005340;28;20549;-61
2020/12/09 02:22:42;;;;;;;18.27;16.50;;;29.60;57.50;;;;;;5008142;28;20236;-60
2020/12/09 02:25:13;;;;;;;17.52;15.82;;;29.70;56.70;;;;;;4999381;28;20231;-59
2020/12/09 02:27:44;;;;;;;17.25;15.45;;;29.70;56.40;;;;;;5003244;28;20233;-60
2020/12/09 02:30:14;;;;;;;16.70;15.10;;;29.80;56.40;;;;;;5004467;28;20243;-60
2020/12/09 02:32:48;;;;;;;15.52;14.15;;;29.80;56.40;;;;;;5006025;28;20594;-59
2020/12/09 02:35:18;;;;;;;17.58;15.77;;;29.90;56.00;;;;;;4996076;28;20243;-58
2020/12/09 02:37:53;;;;;;;17.17;15.45;;;29.90;55.60;;;;;;5000910;28;20310;-59
2020/12/09 02:40:24;;;;;;;16.15;14.55;;;30.00;55.30;;;;;;4999368;28;20785;-61
2020/12/09 02:42:55;;;;;;;17.17;15.65;;;30.00;55.50;;;;;;4993592;28;20235;-61
2020/12/09 02:45:26;;;;;;;17.48;15.68;;;30.10;55.30;;;;;;5001557;28;20749;-59
2020/12/09 02:47:57;;;;;;;16.33;14.77;;;30.20;55.30;;;;;;5009906;28;20263;-63
2020/12/09 02:50:27;;;;;;;15.68;14.18;;;30.20;55.10;;;;;;5004507;28;20312;-62
2020/12/09 02:53:00;;;;;;;14.80;13.45;;;30.30;55.40;;;;;;5008400;28;20227;-61
2020/12/09 02:55:30;;;;;;;17.70;16.00;;;30.30;55.30;;;;;;4998774;28;20816;-61
2020/12/09 02:58:01;;;;;;;16.20;14.75;;;30.40;55.40;;;;;;5008115;28;20658;-61
2020/12/09 03:00:31;;;;;;;15.50;14.00;;;30.50;55.30;;;;;;5007112;28;20247;-62
2020/12/09 03:03:03;;;;;;;17.80;16.10;;;30.50;55.50;;;;;;5007239;28;20237;-60
2020/12/09 03:05:33;;;;;;;16.05;14.45;;;30.50;54.90;;;;;;5006465;28;20235;-62
2020/12/09 03:08:06;;;;;;;17.42;15.80;;;30.60;55.40;;;;;;5008334;28;20243;-62
2020/12/09 03:10:37;;;;;;;16.67;15.13;;;30.70;54.50;;;;;;5006397;28;20293;-62
2020/12/09 03:13:08;;;;;;;16.17;14.52;;;30.80;54.70;;;;;;5005797;28;20247;-60
2020/12/09 03:15:45;;;;;;;15.30;13.88;;;30.80;54.90;;;;;;5007002;28;20240;-62
2020/12/09 03:18:16;;;;;;;17.13;15.43;;;30.90;54.70;;;;;;5006592;28;20239;-62
2020/12/09 03:20:51;;;;;;;16.58;14.98;;;31.00;54.40;;;;;;4995539;28;20665;-62
2020/12/09 03:23:23;;;;;;;16.27;14.65;;;31.00;54.30;;;;;;5008266;28;20277;-61
2020/12/09 03:25:54;;;;;;;16.48;14.93;;;31.10;54.50;;;;;;4999515;28;20223;-62
2020/12/09 03:28:24;;;;;;;16.80;15.02;;;31.20;54.10;;;;;;4945665;28;20381;-62
2020/12/09 03:30:55;;;;;;;14.95;13.57;;;31.30;54.10;;;;;;4939145;28;20299;-61
2020/12/09 03:33:25;;;;;;;15.77;14.25;;;31.30;54.00;;;;;;4947891;28;20236;-62
2020/12/09 03:35:56;;;;;;;14.68;13.43;;;31.40;53.80;;;;;;4944560;28;20237;-62
2020/12/09 03:38:28;;;;;;;15.75;14.25;;;31.50;53.90;;;;;;4947016;28;20771;-62
2020/12/09 03:40:59;;;;;;;15.15;13.75;;;31.60;52.90;;;;;;4943669;28;20384;-61
2020/12/09 03:43:30;;;;;;;15.52;14.13;;;31.60;52.90;;;;;;4947675;28;20256;-61
2020/12/09 03:46:00;;;;;;;15.98;14.38;;;31.70;52.20;;;;;;4947786;28;20232;-62
2020/12/09 03:48:30;;;;;;;15.25;13.82;;;31.80;51.90;;;;;;4950248;28;20233;-62
2020/12/09 03:51:01;;;;;;;14.07;12.77;;;31.80;52.40;;;;;;4950190;28;20237;-62
2020/12/09 03:53:34;;;;;;;13.30;12.05;;;31.90;52.60;;;;;;4950813;28;20247;-62
2020/12/09 03:56:05;;;;;;;14.18;12.82;;;31.90;52.80;;;;;;4952551;28;20705;-62
2020/12/09 03:58:36;;;;;;;15.63;14.27;;;32.00;52.60;;;;;;4959820;28;20285;-61
2020/12/09 04:01:07;;;;;;;15.00;13.60;;;32.10;52.60;;;;;;5005404;28;20302;-61
2020/12/09 04:03:38;;;;;;;15.50;14.00;;;32.10;51.50;;;;;;5007195;28;20235;-62
2020/12/09 04:06:09;;;;;;;17.40;15.73;;;32.20;51.30;;;;;;5005129;28;20232;-60
2020/12/09 04:08:40;;;;;;;16.70;14.93;;;32.20;51.30;;;;;;5008268;28;20262;-62
2020/12/09 04:11:11;;;;;;;15.38;13.77;;;32.30;51.40;;;;;;5008289;28;20235;-61
2020/12/09 04:13:42;;;;;;;14.25;12.75;;;32.30;51.50;;;;;;5005628;28;20292;-62
2020/12/09 04:16:12;;;;;;;14.48;12.98;;;32.40;51.60;;;;;;5002810;28;20239;-62
2020/12/09 04:18:43;;;;;;;13.82;12.63;;;32.40;51.00;;;;;;5007260;28;20227;-61
2020/12/09 04:21:13;;;;;;;14.77;13.27;;;32.50;50.20;;;;;;5006628;28;20237;-59
2020/12/09 04:23:45;;;;;;;14.70;13.20;;;32.60;49.80;;;;;;5006286;28;20314;-60
2020/12/09 04:26:16;;;;;;;13.55;12.35;;;32.60;50.40;;;;;;5008406;28;20805;-62
2020/12/09 04:28:46;;;;;;;12.82;11.63;;;32.60;50.00;;;;;;5011103;28;20239;-60
2020/12/09 04:31:17;;;;;;;13.65;12.25;;;32.70;50.20;;;;;;5007015;28;20235;-61
2020/12/09 04:33:56;;;;;;;13.95;12.57;;;32.70;50.30;;;;;;5013896;28;20245;-61
2020/12/09 04:36:27;;;;;;;14.98;13.27;;;32.80;49.90;;;;;;5001299;28;20241;-61
2020/12/09 04:38:59;;;;;;;13.75;12.35;;;32.80;49.50;;;;;;5004547;28;20302;-60
2020/12/09 04:41:29;;;;;;;14.98;13.68;;;32.90;49.70;;;;;;5008726;28;20293;-61
2020/12/09 04:44:00;;;;;;;14.52;13.02;;;32.90;50.40;;;;;;5004251;28;20270;-61
2020/12/09 04:46:31;;;;;;;14.32;12.85;;;33.00;49.80;;;;;;5008146;28;20235;-60
2020/12/09 04:49:03;;;;;;;13.95;12.60;;;33.00;49.70;;;;;;5001037;28;20598;-60
2020/12/09 04:52:08;;;;;;;14.07;12.57;;;33.10;49.90;;;;;;5006781;28;20235;-55
2020/12/09 04:54:41;;;;;;;15.38;13.88;;;33.10;50.20;;;;;;5005743;28;20235;-58
2020/12/09 04:57:13;;;;;;;13.00;11.77;;;33.20;49.50;;;;;;5009997;28;20227;-60
2020/12/09 04:59:44;;;;;;;14.45;13.05;;;33.30;49.80;;;;;;5008617;28;20235;-61
2020/12/09 05:02:15;;;;;;;14.15;12.75;;;33.30;49.20;;;;;;5005505;28;20235;-62
2020/12/09 05:04:46;;;;;;;12.77;11.57;;;33.30;49.00;;;;;;5007993;28;20313;-61
2020/12/09 05:07:17;;;;;;;14.73;11.93;;;33.40;48.70;;;;;;5009207;28;20235;-60
2020/12/09 05:09:48;;;;;;;13.93;12.63;;;33.40;48.50;;;;;;5009212;28;20250;-61
2020/12/09 05:12:19;;;;;;;13.45;12.25;;;33.50;48.30;;;;;;5011465;28;20235;-60
2020/12/09 05:14:50;;;;;;;13.70;12.40;;;33.50;48.80;;;;;;5010793;28;20235;-60
2020/12/09 05:17:22;;;;;;;13.82;12.48;;;33.60;48.30;;;;;;5004158;28;20237;-60
2020/12/09 05:19:52;;;;;;;13.55;12.15;;;33.60;48.00;;;;;;4993343;28;20733;-61
2020/12/09 05:22:23;;;;;;;13.60;12.30;;;33.60;47.60;;;;;;5010239;28;20251;-61
2020/12/09 05:24:54;;;;;;;13.68;12.23;;;33.60;47.20;;;;;;5010284;28;20562;-60
2020/12/09 05:27:25;;;;;;;11.85;10.75;;;33.70;46.90;;;;;;5007803;28;20243;-61
2020/12/09 05:29:55;;;;;;;11.45;10.35;;;33.70;46.80;;;;;;5010056;28;20265;-60
2020/12/09 05:32:26;;;;;;;11.85;10.75;;;33.70;46.60;;;;;;5010071;28;20238;-59
2020/12/09 05:34:57;;;;;;;11.10;10.00;;;33.70;46.30;;;;;;5010085;28;20235;-60
2020/12/09 05:37:27;;;;;;;10.50;9.40;;;33.80;46.40;;;;;;5011471;28;20235;-60
2020/12/09 05:39:59;;;;;;;11.27;10.32;;;33.80;46.30;;;;;;4999731;28;20238;-62
2020/12/09 05:42:30;;;;;;;11.45;10.35;;;33.80;46.20;;;;;;5007485;28;20249;-61
2020/12/09 05:45:00;;;;;;;11.23;10.20;;;33.80;46.00;;;;;;4947241;28;20240;-59
2020/12/09 05:47:31;;;;;;;9.82;8.93;;;33.90;45.60;;;;;;4945342;28;20230;-61
2020/12/09 05:50:02;;;;;;;9.30;8.48;;;33.90;45.30;;;;;;4946127;28;20234;-61
2020/12/09 05:52:32;;;;;;;11.25;10.15;;;33.90;45.10;;;;;;4949340;28;20320;-61
2020/12/09 05:55:04;;;;;;;10.55;9.57;;;33.90;45.20;;;;;;4937142;28;20244;-60
2020/12/09 05:57:34;;;;;;;9.57;8.52;;;33.90;45.10;;;;;;4945096;28;20261;-60
2020/12/09 06:00:05;;;;;;;9.10;8.20;;;33.90;45.10;;;;;;4947297;28;20716;-62
2020/12/09 06:02:35;;;;;;;8.88;8.05;;;33.90;44.80;;;;;;4891050;29;20245;-59
2020/12/09 06:05:08;;;;;;;8.65;7.95;;;34.00;44.30;;;;;;4886977;29;20764;-61
2020/12/09 06:07:39;;;;;;;7.55;6.85;;;34.00;44.40;;;;;;4883079;29;20801;-60
2020/12/09 06:10:12;;;;;;;6.93;6.22;;;34.00;44.30;;;;;;4930597;28;20237;-63
2020/12/09 06:12:56;;;;;;;69.70;14.13;;;34.00;43.90;;;;;;4942859;28;20300;-64
2020/12/09 06:15:27;;;;;;;16.52;8.18;;;34.10;44.30;;;;;;4942939;28;20247;-64
2020/12/09 06:18:08;;;;;;;10.15;7.28;;;34.10;44.40;;;;;;4944757;28;20225;-63
2020/12/09 06:20:39;;;;;;;11.93;7.18;;;34.10;44.10;;;;;;4947499;28;20233;-64
2020/12/09 06:23:11;;;;;;;5.90;5.40;;;34.20;44.10;;;;;;4943193;28;20268;-64
2020/12/09 06:25:43;;;;;;;6.70;4.78;;;34.20;43.40;;;;;;4946089;28;20244;-64
2020/12/09 06:28:17;;;;;;;4.78;4.00;;;34.30;43.40;;;;;;4947274;28;20240;-64
2020/12/09 06:30:48;;;;;;;4.30;4.00;;;34.30;43.30;;;;;;4945603;28;20608;-64
2020/12/09 06:33:31;;;;;;;5.82;5.32;;;34.30;42.60;;;;;;4934965;28;20231;-64
2020/12/09 06:36:18;;;;;;;6.68;5.75;;;34.40;42.70;;;;;;4966751;28;20220;-65
2020/12/09 06:39:14;;;;;;;7.93;7.22;;;34.40;43.20;;;;;;4959432;28;20223;-63
2020/12/09 06:42:08;;;;;;;6.70;6.00;;;34.50;42.80;;;;;;4942809;28;20653;-65
2020/12/09 06:44:52;;;;;;;5.53;5.03;;;34.50;43.50;;;;;;4963036;28;20365;-65
2020/12/09 06:47:23;;;;;;;5.65;5.15;;;34.60;42.90;;;;;;4964878;28;20252;-65
2020/12/09 06:49:54;;;;;;;6.65;5.88;;;34.60;43.40;;;;;;4967027;28;20232;-65
2020/12/09 06:52:38;;;;;;;7.32;6.63;;;34.60;43.20;;;;;;4964369;28;20224;-64
2020/12/09 06:55:09;;;;;;;7.78;7.07;;;34.70;43.70;;;;;;4965360;28;20240;-64
2020/12/09 06:57:41;;;;;;;9.55;8.18;;;34.80;44.10;;;;;;4965650;28;20263;-64
2020/12/09 07:00:17;;;;;;;10.00;9.10;;;34.80;44.00;;;;;;4966114;28;20243;-64
2020/12/09 07:02:49;;;;;;;9.15;7.80;;;34.90;43.40;;;;;;4966891;28;20709;-62
2020/12/09 07:05:22;;;;;;;10.15;7.75;;;34.90;43.30;;;;;;4984055;28;20290;-62
2020/12/09 07:07:53;;;;;;;10.68;8.45;;;35.00;43.20;;;;;;4986211;28;20240;-62
2020/12/09 07:10:30;;;;;;;9.85;9.02;;;35.00;43.60;;;;;;4988257;28;20228;-62
2020/12/09 07:13:10;;;;;;;10.00;8.98;;;35.10;43.50;;;;;;4988062;28;20243;-62
2020/12/09 07:15:43;;;;;;;9.30;8.40;;;35.10;43.40;;;;;;4986889;28;20239;-62
2020/12/09 07:18:14;;;;;;;8.07;7.35;;;35.10;43.80;;;;;;4987817;28;20311;-63
2020/12/09 07:20:44;;;;;;;8.63;7.65;;;35.20;43.90;;;;;;4988258;28;20335;-63
2020/12/09 07:23:15;;;;;;;10.57;9.57;;;35.20;43.40;;;;;;4928944;28;20592;-63
2020/12/09 07:25:46;;;;;;;9.65;8.70;;;35.30;43.10;;;;;;4919325;28;20234;-63
2020/12/09 07:28:17;;;;;;;10.63;9.63;;;35.30;42.80;;;;;;4927533;28;20230;-63
2020/12/09 07:30:49;;;;;;;9.35;8.50;;;35.30;42.60;;;;;;4928547;28;20226;-63
2020/12/09 07:33:20;;;;;;;12.15;10.90;;;35.30;42.10;;;;;;4925322;28;20230;-63
2020/12/09 07:35:51;;;;;;;14.50;13.13;;;35.30;43.50;;;;;;4922007;28;20233;-64
2020/12/09 07:38:21;;;;;;;15.50;14.00;;;35.30;44.90;;;;;;4924168;28;20301;-64
2020/12/09 07:40:52;;;;;;;15.35;13.82;;;35.30;45.90;;;;;;4926192;28;20242;-63
2020/12/09 07:43:23;;;;;;;11.27;10.18;;;35.20;45.90;;;;;;4928003;28;20252;-63
2020/12/09 07:45:53;;;;;;;11.35;10.25;;;35.20;44.50;;;;;;4923856;28;20233;-63
2020/12/09 07:48:24;;;;;;;10.65;9.75;;;35.20;44.00;;;;;;4885152;29;20757;-63
2020/12/09 07:50:55;;;;;;;14.07;12.20;;;35.20;44.00;;;;;;4888553;29;20313;-63
2020/12/09 07:53:26;;;;;;;14.95;13.57;;;35.20;45.00;;;;;;4891344;29;20305;-63
2020/12/09 07:55:59;;;;;;;16.10;14.50;;;35.20;45.80;;;;;;4931895;28;20231;-61
2020/12/09 07:58:31;;;;;;;13.98;12.52;;;35.10;46.10;;;;;;4962704;28;20233;-60
2020/12/09 08:01:02;;;;;;;11.43;10.32;;;35.10;46.40;;;;;;4962921;28;20260;-55
2020/12/09 08:03:33;;;;;;;10.50;9.25;;;35.00;44.90;;;;;;4964754;28;20240;-60
2020/12/09 08:06:04;;;;;;;11.25;10.07;;;35.00;44.30;;;;;;4961208;28;20828;-63
2020/12/09 08:08:35;;;;;;;13.48;12.07;;;35.00;45.00;;;;;;4962912;28;20232;-59
2020/12/09 08:11:10;;;;;;;16.10;13.27;;;35.00;46.00;;;;;;4945791;28;20366;-58
2020/12/09 08:13:42;;;;;;;14.95;13.55;;;35.10;46.00;;;;;;4946672;28;20233;-62
2020/12/09 08:16:13;;;;;;;14.18;12.68;;;35.00;46.70;;;;;;4941971;28;20233;-59
2020/12/09 08:18:44;;;;;;;14.80;13.32;;;35.10;47.00;;;;;;4946320;28;20672;-61
2020/12/09 08:21:14;;;;;;;13.88;12.52;;;35.00;46.80;;;;;;4964740;28;20236;-64
2020/12/09 08:23:46;;;;;;;16.83;14.88;;;35.00;47.00;;;;;;4922955;28;20733;-60
2020/12/09 08:26:30;;;;;;;16.05;14.35;;;35.00;46.90;;;;;;4927493;28;20286;-62
2020/12/09 08:29:02;;;;;;;16.13;14.52;;;34.90;47.10;;;;;;4920702;28;20245;-61
2020/12/09 08:31:34;;;;;;;15.52;13.77;;;34.90;47.40;;;;;;4928490;28;20785;-61
2020/12/09 08:34:13;;;;;;;18.75;13.13;;;34.80;47.20;;;;;;4924354;28;20238;-63
2020/12/09 08:36:44;;;;;;;15.43;13.82;;;34.80;47.50;;;;;;4889372;29;20238;-61
2020/12/09 08:39:14;;;;;;;13.75;12.45;;;34.80;47.70;;;;;;4893086;29;20651;-63
2020/12/09 08:41:47;;;;;;;13.68;12.48;;;34.80;47.60;;;;;;4900148;29;20246;-66
2020/12/09 08:44:19;;;;;;;15.07;13.57;;;34.80;47.70;;;;;;4911278;29;20775;-65
2020/12/09 08:47:03;;;;;;;14.73;13.25;;;34.70;47.80;;;;;;4912245;29;20253;-60
2020/12/09 08:49:34;;;;;;;16.33;11.88;;;34.80;47.50;;;;;;4906174;29;20286;-62
2020/12/09 08:52:05;;;;;;;13.90;12.02;;;34.80;47.10;;;;;;4910216;29;20230;-64
2020/12/09 08:54:35;;;;;;;14.10;12.50;;;34.80;47.00;;;;;;4945846;28;20670;-67
2020/12/09 08:57:05;;;;;;;15.45;13.85;;;34.90;47.40;;;;;;4990065;28;20230;-66
2020/12/09 08:59:37;;;;;;;15.40;13.80;;;34.90;47.60;;;;;;4982747;28;20669;-64
2020/12/09 09:02:07;;;;;;;13.68;12.38;;;34.90;47.70;;;;;;4986314;28;20619;-64
2020/12/09 09:04:39;;;;;;;13.52;12.20;;;34.90;47.60;;;;;;5004926;28;20245;-65
2020/12/09 09:07:10;;;;;;;13.05;11.80;;;34.90;47.80;;;;;;5009411;28;21377;-65
2020/12/09 09:09:41;;;;;;;14.15;12.77;;;34.90;47.20;;;;;;5009933;28;20235;-64
2020/12/09 09:12:11;;;;;;;15.50;13.90;;;34.90;47.40;;;;;;5008585;28;20639;-65
2020/12/09 09:14:43;;;;;;;16.08;14.52;;;35.00;47.30;;;;;;5006457;28;20255;-64
2020/12/09 09:17:14;;;;;;;16.05;14.55;;;34.90;47.30;;;;;;5008366;28;20251;-65
2020/12/09 09:20:02;;;;;;;14.18;12.88;;;34.90;47.40;;;;;;5006062;28;20235;-64
2020/12/09 09:22:32;;;;;;;12.88;11.57;;;34.90;47.20;;;;;;5008297;28;20258;-65
2020/12/09 09:25:04;;;;;;;13.73;12.38;;;34.90;46.70;;;;;;5007460;28;20675;-66
2020/12/09 09:27:34;;;;;;;13.75;12.35;;;34.90;46.40;;;;;;4995795;28;20204;-61
2020/12/09 09:30:06;;;;;;;13.80;12.25;;;34.90;46.50;;;;;;4993404;28;20214;-65
2020/12/09 09:32:37;;;;;;;14.35;12.85;;;34.90;46.50;;;;;;4983250;28;20689;-64
2020/12/09 09:35:08;;;;;;;13.20;11.73;;;34.90;46.50;;;;;;5001987;28;20233;-64
2020/12/09 09:37:41;;;;;;;12.32;11.13;;;34.90;46.50;;;;;;4995257;28;20242;-63
2020/12/09 09:40:12;;;;;;;14.73;11.93;;;35.00;46.50;;;;;;4946585;28;20272;-63
2020/12/09 09:42:43;;;;;;;13.70;12.40;;;35.10;46.30;;;;;;4969438;28;20236;-64
2020/12/09 09:45:15;;;;;;;14.57;12.27;;;35.10;46.00;;;;;;4967388;28;20327;-65
2020/12/09 09:47:45;;;;;;;12.25;11.02;;;35.20;46.10;;;;;;4967798;28;20236;-64
2020/12/09 09:50:16;;;;;;;13.77;12.23;;;35.20;46.10;;;;;;4965048;28;20225;-65
2020/12/09 09:52:47;;;;;;;12.57;11.27;;;35.10;46.00;;;;;;4969101;28;20250;-64
2020/12/09 09:55:18;;;;;;;12.95;11.68;;;35.10;46.00;;;;;;4968633;28;20244;-66
2020/12/09 09:57:49;;;;;;;13.65;11.52;;;35.10;46.00;;;;;;4949852;28;20258;-64
2020/12/09 10:00:20;;;;;;;12.65;11.55;;;35.00;46.20;;;;;;4948445;28;20229;-64
2020/12/09 10:02:52;;;;;;;15.63;11.88;;;35.00;46.30;;;;;;4948038;28;20229;-67
2020/12/09 10:05:26;;;;;;;12.85;11.65;;;34.90;46.30;;;;;;4949699;28;20697;-66
2020/12/09 10:07:57;;;;;;;13.25;11.80;;;34.90;46.70;;;;;;4949698;28;20237;-66
2020/12/09 10:10:28;;;;;;;15.57;12.82;;;34.90;46.70;;;;;;4957166;28;20253;-63
2020/12/09 10:12:58;;;;;;;15.70;14.15;;;35.10;46.90;;;;;;4988116;28;20258;-65
2020/12/09 10:15:30;;;;;;;14.57;13.05;;;35.30;46.60;;;;;;4985684;28;20242;-65
2020/12/09 10:18:04;;;;;;;14.40;12.90;;;35.50;46.30;;;;;;4972869;28;20278;-65
2020/12/09 10:20:35;;;;;;;16.13;12.38;;;35.70;45.90;;;;;;4947341;28;20232;-64
2020/12/09 10:23:07;;;;;;;14.18;12.60;;;36.00;45.80;;;;;;4992607;28;20663;-65
2020/12/09 10:25:38;;;;;;;13.95;12.25;;;36.10;45.40;;;;;;4995362;28;20244;-64
2020/12/09 10:28:10;;;;;;;13.75;12.35;;;36.20;45.20;;;;;;4994392;28;20303;-64
2020/12/09 10:30:46;;;;;;;13.98;12.68;;;36.30;44.90;;;;;;4995599;28;20230;-65
2020/12/09 10:33:20;;;;;;;14.60;12.50;;;36.40;44.80;;;;;;4999051;28;20222;-63
2020/12/09 10:35:52;;;;;;;13.68;12.25;;;36.40;44.60;;;;;;4993403;28;20254;-63
2020/12/09 10:38:25;;;;;;;14.40;13.00;;;36.40;44.50;;;;;;4999219;28;20230;-64
2020/12/09 10:40:56;;;;;;;14.27;12.80;;;36.30;44.40;;;;;;4992631;28;20241;-64
2020/12/09 10:43:26;;;;;;;13.82;12.30;;;36.10;44.30;;;;;;4977695;28;20615;-64
2020/12/09 10:46:06;;;;;;;13.95;12.45;;;35.90;44.40;;;;;;4989000;28;20211;-64
2020/12/09 10:48:36;;;;;;;14.23;12.82;;;35.60;44.50;;;;;;4995977;28;20242;-64
2020/12/09 10:51:07;;;;;;;12.98;11.60;;;35.40;44.70;;;;;;4986341;28;20227;-64
2020/12/09 10:53:38;;;;;;;13.45;12.15;;;35.10;44.90;;;;;;4996175;28;20283;-64
2020/12/09 10:56:08;;;;;;;13.65;11.63;;;34.80;45.20;;;;;;4996762;28;20285;-64
2020/12/09 10:58:39;;;;;;;13.32;11.85;;;34.60;45.60;;;;;;4984519;28;20244;-64
2020/12/09 11:01:12;;;;;;;13.15;11.75;;;34.30;45.80;;;;;;5000488;28;20406;-64
2020/12/09 11:03:43;;;;;;;12.70;11.50;;;34.10;46.20;;;;;;4997569;28;20602;-64
2020/12/09 11:06:13;;;;;;;11.90;10.70;;;33.90;46.50;;;;;;4991718;28;20234;-64
2020/12/09 11:08:44;;;;;;;12.80;11.50;;;33.70;46.80;;;;;;4985602;28;20238;-64
2020/12/09 11:11:15;;;;;;;12.75;11.40;;;33.50;47.10;;;;;;4987905;28;20314;-64
2020/12/09 11:13:46;;;;;;;13.18;11.88;;;33.30;47.40;;;;;;4981096;28;20227;-64
2020/12/09 11:16:18;;;;;;;13.63;11.48;;;33.10;47.60;;;;;;4984769;28;20309;-64
2020/12/09 11:18:49;;;;;;;14.70;13.15;;;33.00;48.00;;;;;;4992729;28;20563;-64
2020/12/09 11:21:20;;;;;;;14.65;13.07;;;32.90;48.20;;;;;;4995268;28;20266;-64
2020/12/09 11:23:51;;;;;;;17.13;14.05;;;32.80;48.60;;;;;;4982445;28;20231;-64
2020/12/09 11:26:21;;;;;;;15.60;13.98;;;32.60;48.80;;;;;;4989708;28;20215;-64
2020/12/09 11:28:52;;;;;;;15.85;12.82;;;32.50;49.00;;;;;;4994695;28;20242;-64
2020/12/09 11:31:24;;;;;;;17.33;13.73;;;32.40;49.20;;;;;;4994252;28;20619;-64
2020/12/09 11:33:55;;;;;;;17.13;15.27;;;32.30;49.60;;;;;;5007716;28;20234;-64
2020/12/09 11:36:26;;;;;;;23.77;16.83;;;32.20;49.80;;;;;;4992702;28;20801;-64
2020/12/09 11:38:57;;;;;;;19.48;17.23;;;32.10;50.00;;;;;;4998423;28;20215;-64
2020/12/09 11:41:27;;;;;;;17.80;15.48;;;32.00;50.20;;;;;;4989759;28;20235;-64
2020/12/09 11:43:58;;;;;;;19.33;14.88;;;32.00;50.40;;;;;;4993440;28;20810;-64
2020/12/09 11:46:30;;;;;;;18.77;15.02;;;31.90;50.60;;;;;;4998496;28;20199;-64
2020/12/09 11:49:01;;;;;;;18.38;13.05;;;31.80;50.90;;;;;;4993102;28;20240;-65
2020/12/09 11:51:31;;;;;;;15.85;13.88;;;31.80;51.00;;;;;;5004990;28;20744;-64
2020/12/09 11:54:02;;;;;;;18.00;15.82;;;31.70;51.30;;;;;;5002161;28;20239;-64
2020/12/09 11:56:33;;;;;;;16.35;14.63;;;31.60;51.50;;;;;;4988017;28;20207;-65
2020/12/09 11:59:03;;;;;;;15.77;14.18;;;31.60;51.70;;;;;;5007563;28;20210;-64
2020/12/09 12:01:35;;;;;;;18.50;13.35;;;31.60;51.90;;;;;;4987353;28;20290;-64
2020/12/09 12:04:06;;;;;;;16.17;14.00;;;31.60;52.10;;;;;;4960120;28;20240;-65
2020/12/09 12:06:36;;;;;;;19.58;17.67;;;31.50;52.20;;;;;;4949654;28;20239;-64
2020/12/09 12:09:08;;;;;;;19.50;16.75;;;31.50;52.30;;;;;;4949347;28;20248;-64
2020/12/09 12:11:38;;;;;;;19.50;16.80;;;31.40;52.40;;;;;;4952710;28;20710;-64
2020/12/09 12:14:09;;;;;;;22.38;19.60;;;31.40;52.60;;;;;;4951574;28;20260;-63
2020/12/09 12:16:40;;;;;;;21.75;19.40;;;31.40;52.60;;;;;;4958193;28;20298;-63
2020/12/09 12:19:16;;;;;;;23.52;19.38;;;31.40;52.70;;;;;;4963352;28;20262;-64
2020/12/09 12:21:49;;;;;;;20.40;18.30;;;31.30;52.70;;;;;;4943239;28;20240;-64
2020/12/09 12:24:20;;;;;;;24.42;19.27;;;31.30;52.80;;;;;;4967407;28;20232;-63
2020/12/09 12:26:50;;;;;;;18.95;17.00;;;31.30;52.80;;;;;;4970817;28;20231;-65
2020/12/09 12:29:21;;;;;;;20.27;17.45;;;31.20;52.90;;;;;;5003089;28;20235;-64
2020/12/09 12:31:55;;;;;;;20.90;17.25;;;31.20;52.90;;;;;;4999722;28;20253;-65
2020/12/09 12:34:25;;;;;;;19.25;17.23;;;31.20;53.00;;;;;;5009546;28;20239;-65
2020/12/09 12:36:58;;;;;;;17.00;15.25;;;31.10;53.00;;;;;;5009934;28;20239;-65
2020/12/09 12:39:29;;;;;;;17.40;15.48;;;31.10;53.20;;;;;;5010274;28;20679;-65
2020/12/09 12:41:59;;;;;;;17.25;15.45;;;31.00;53.30;;;;;;5020925;28;20246;-65
2020/12/09 12:44:30;;;;;;;17.60;15.82;;;31.00;53.30;;;;;;5002343;28;20239;-65
2020/12/09 12:47:04;;;;;;;19.58;15.70;;;30.90;53.30;;;;;;5009522;28;20227;-65
2020/12/09 12:49:34;;;;;;;18.90;15.27;;;30.90;53.40;;;;;;5011795;28;20227;-63
2020/12/09 12:52:04;;;;;;;17.65;15.80;;;30.80;53.40;;;;;;5007124;28;20599;-63